Time;durP1;ratioP1;P1;durP2;ratioP2;P2;SDS_P1;SDS_P2;PMS_P1;PMS_P2;Temp;Humidity;BMP_temperature;BMP_pressure;BME280_temperature;BME280_humidity;BME280_pressure;Samples;Min_cycle;Max_cycle;Signal;HPM_P1;HPM_P2
2023/05/22 00:01:37;;;;;;;27.52;24.83;;;19.50;99.90;;;;;;6215167;23;20008;-72
2023/05/22 00:04:03;;;;;;;29.05;26.00;;;19.50;99.90;;;;;;6241511;23;20302;-72
2023/05/22 00:06:29;;;;;;;28.58;25.65;;;19.50;99.90;;;;;;6241670;23;19996;-72
2023/05/22 00:08:54;;;;;;;29.90;26.70;;;19.50;99.90;;;;;;6242309;23;20146;-72
2023/05/22 00:11:21;;;;;;;29.02;26.00;;;19.40;99.90;;;;;;6241282;23;20024;-72
2023/05/22 00:13:47;;;;;;;29.02;25.67;;;19.40;99.90;;;;;;6242348;23;20000;-72
2023/05/22 00:16:12;;;;;;;28.60;25.48;;;19.30;99.90;;;;;;6241173;23;20023;-72
2023/05/22 00:18:41;;;;;;;28.25;25.42;;;19.30;99.90;;;;;;6241515;23;20079;-72
2023/05/22 00:21:07;;;;;;;29.08;26.08;;;19.30;99.90;;;;;;6241819;23;20414;-72
2023/05/22 00:23:33;;;;;;;28.77;25.48;;;19.30;99.90;;;;;;6214507;23;20050;-72
2023/05/22 00:25:59;;;;;;;29.65;26.35;;;19.30;99.90;;;;;;6241556;23;20016;-72
2023/05/22 00:28:25;;;;;;;29.17;24.88;;;19.20;99.90;;;;;;6241570;23;20004;-72
2023/05/22 00:30:51;;;;;;;27.10;23.80;;;19.20;99.90;;;;;;6241621;23;20430;-72
2023/05/22 00:33:16;;;;;;;26.13;22.52;;;19.10;99.90;;;;;;6240938;23;20034;-72
2023/05/22 00:35:42;;;;;;;24.08;21.60;;;19.00;99.90;;;;;;6241695;23;19998;-72
2023/05/22 00:38:07;;;;;;;25.60;23.00;;;18.90;99.90;;;;;;6241748;23;20071;-72
2023/05/22 00:40:33;;;;;;;23.80;21.38;;;18.90;99.90;;;;;;6241499;23;20004;-72
2023/05/22 00:42:59;;;;;;;24.27;21.58;;;18.80;99.90;;;;;;6241872;23;20004;-72
2023/05/22 00:45:24;;;;;;;24.25;21.83;;;18.80;99.90;;;;;;6241421;23;20387;-72
2023/05/22 00:47:51;;;;;;;32.45;23.92;;;18.80;99.90;;;;;;6241199;23;20054;-72
2023/05/22 00:50:17;;;;;;;25.70;22.20;;;18.70;99.90;;;;;;6214056;23;20016;-72
2023/05/22 00:52:45;;;;;;;26.48;23.50;;;18.70;99.90;;;;;;6241834;23;19997;-71
2023/05/22 00:55:12;;;;;;;22.90;20.30;;;18.60;99.90;;;;;;6241530;23;20127;-72
2023/05/22 00:57:41;;;;;;;29.83;24.88;;;18.60;99.90;;;;;;6241960;23;19996;-71
2023/05/22 01:00:12;;;;;;;27.58;24.05;;;18.50;99.90;;;;;;6243146;23;20054;-72
2023/05/22 01:02:38;;;;;;;26.50;23.77;;;18.50;99.90;;;;;;6215825;23;20075;-71
2023/05/22 01:05:05;;;;;;;27.73;24.10;;;18.40;99.90;;;;;;6243166;23;20444;-71
2023/05/22 01:07:33;;;;;;;28.15;25.02;;;18.40;99.90;;;;;;6216173;23;20345;-72
2023/05/22 01:09:58;;;;;;;27.60;23.25;;;18.30;99.90;;;;;;6243634;23;20082;-71
2023/05/22 01:12:33;;;;;;;29.35;25.88;;;18.30;99.90;;;;;;6215772;23;20039;-72
2023/05/22 01:15:16;;;;;;;30.95;26.85;;;18.30;99.90;;;;;;6216443;23;20441;-72
2023/05/22 01:18:09;;;;;;;27.85;24.73;;;18.30;99.90;;;;;;6243119;23;20000;-71
2023/05/22 01:20:47;;;;;;;25.70;22.95;;;18.30;99.90;;;;;;6215958;23;20230;-72
2023/05/22 01:23:24;;;;;;;28.45;25.30;;;18.30;99.90;;;;;;6243158;23;20307;-71
2023/05/22 01:26:09;;;;;;;28.63;25.70;;;18.20;99.90;;;;;;6243096;23;20015;-72
2023/05/22 01:29:10;;;;;;;32.08;26.45;;;18.20;99.90;;;;;;6243288;23;20066;-71
2023/05/22 01:31:39;;;;;;;31.73;28.42;;;18.20;99.90;;;;;;6222649;23;20031;-72
2023/05/22 01:34:10;;;;;;;33.90;28.48;;;18.20;99.90;;;;;;6243718;23;20001;-72
2023/05/22 01:36:37;;;;;;;31.75;27.27;;;18.20;99.90;;;;;;6216479;23;20008;-71
2023/05/22 01:39:05;;;;;;;30.30;25.85;;;18.20;99.90;;;;;;6243416;23;20032;-71
2023/05/22 01:41:32;;;;;;;31.05;27.30;;;18.20;99.90;;;;;;6243373;23;20035;-71
2023/05/22 01:43:59;;;;;;;33.08;29.52;;;18.20;99.90;;;;;;6243500;23;20004;-72
2023/05/22 01:46:29;;;;;;;29.75;26.50;;;18.10;99.90;;;;;;6242099;23;20043;-72
2023/05/22 01:48:55;;;;;;;32.50;27.83;;;18.10;99.90;;;;;;6243453;23;20000;-71
2023/05/22 01:51:38;;;;;;;31.45;28.25;;;18.10;99.90;;;;;;6242936;23;20023;-71
2023/05/22 01:54:30;;;;;;;31.00;27.70;;;18.10;99.90;;;;;;6243294;23;20393;-71
2023/05/22 01:57:04;;;;;;;29.52;26.52;;;18.10;99.90;;;;;;6243237;23;20430;-72
2023/05/22 01:59:47;;;;;;;35.10;29.08;;;18.00;99.90;;;;;;6242526;23;20012;-71
2023/05/22 02:02:16;;;;;;;31.50;27.83;;;18.10;99.90;;;;;;6242717;23;20004;-73
2023/05/22 02:04:45;;;;;;;32.60;26.98;;;18.10;99.90;;;;;;6243174;23;20079;-72
2023/05/22 02:07:12;;;;;;;33.40;29.77;;;18.10;99.90;;;;;;6215666;23;20004;-72
2023/05/22 02:09:39;;;;;;;33.03;26.30;;;18.00;99.90;;;;;;6242944;23;20000;-72
2023/05/22 02:12:06;;;;;;;31.15;27.20;;;18.00;99.90;;;;;;6242625;23;20374;-71
2023/05/22 02:14:33;;;;;;;31.02;26.85;;;18.00;99.90;;;;;;6242254;23;20016;-72
2023/05/22 02:17:00;;;;;;;30.52;27.15;;;18.00;99.90;;;;;;6243163;23;20003;-73
2023/05/22 02:19:26;;;;;;;33.83;29.35;;;17.90;99.90;;;;;;6242735;23;20000;-72
2023/05/22 02:21:52;;;;;;;34.08;27.95;;;17.90;99.90;;;;;;6242940;23;20012;-73
2023/05/22 02:24:17;;;;;;;33.78;27.70;;;17.90;99.90;;;;;;6242603;23;20057;-70
2023/05/22 02:26:43;;;;;;;32.53;28.38;;;17.90;99.90;;;;;;6242610;23;20173;-70
2023/05/22 02:29:09;;;;;;;32.00;28.50;;;17.80;99.90;;;;;;6242052;23;20008;-70
2023/05/22 02:31:34;;;;;;;37.05;29.98;;;17.80;99.90;;;;;;6242636;23;20000;-70
2023/05/22 02:34:00;;;;;;;32.92;29.48;;;17.80;99.90;;;;;;6242341;23;20025;-70
2023/05/22 02:36:26;;;;;;;33.83;30.27;;;17.70;99.90;;;;;;6242492;23;20003;-70
2023/05/22 02:38:51;;;;;;;34.45;28.55;;;17.70;99.90;;;;;;6242883;23;20012;-70
2023/05/22 02:41:17;;;;;;;33.03;28.65;;;17.70;99.90;;;;;;6242388;23;20023;-71
2023/05/22 02:43:43;;;;;;;34.13;29.40;;;17.60;99.90;;;;;;6242054;23;19999;-70
2023/05/22 02:46:08;;;;;;;35.22;29.55;;;17.60;99.90;;;;;;6242648;23;20050;-70
2023/05/22 02:48:34;;;;;;;30.95;27.73;;;17.60;99.90;;;;;;6242556;23;20441;-70
2023/05/22 02:50:59;;;;;;;33.20;28.92;;;17.60;99.90;;;;;;6242620;23;20026;-70
2023/05/22 02:53:25;;;;;;;35.92;29.55;;;17.50;99.90;;;;;;6242201;23;20007;-70
2023/05/22 02:55:52;;;;;;;31.92;28.52;;;17.50;99.90;;;;;;6215787;23;20011;-70
2023/05/22 02:58:18;;;;;;;33.35;29.73;;;17.50;99.90;;;;;;6242070;23;20071;-70
2023/05/22 03:00:44;;;;;;;32.67;29.35;;;17.40;99.90;;;;;;6216730;23;20384;-70
2023/05/22 03:03:10;;;;;;;34.60;29.27;;;17.40;99.90;;;;;;6243490;23;20010;-70
2023/05/22 03:05:36;;;;;;;36.58;30.63;;;17.40;99.90;;;;;;6242916;23;20028;-70
2023/05/22 03:08:01;;;;;;;39.03;30.95;;;17.30;99.90;;;;;;6242746;23;20717;-70
2023/05/22 03:10:27;;;;;;;34.78;30.95;;;17.30;99.90;;;;;;6241629;23;20038;-70
2023/05/22 03:12:52;;;;;;;38.05;32.33;;;17.20;99.90;;;;;;6239953;23;20414;-70
2023/05/22 03:15:18;;;;;;;40.05;32.55;;;17.20;99.90;;;;;;6212537;23;19997;-70
2023/05/22 03:17:44;;;;;;;33.35;29.88;;;17.20;99.90;;;;;;6240412;23;20023;-70
2023/05/22 03:20:13;;;;;;;36.75;32.50;;;17.10;99.90;;;;;;6240174;23;20000;-69
2023/05/22 03:22:39;;;;;;;35.03;28.98;;;17.10;99.90;;;;;;6239525;23;20000;-70
2023/05/22 03:25:08;;;;;;;34.95;31.15;;;17.10;99.90;;;;;;6239690;23;20426;-70
2023/05/22 03:27:34;;;;;;;35.83;32.17;;;17.00;99.90;;;;;;6212474;23;20108;-71
2023/05/22 03:29:59;;;;;;;37.47;33.67;;;17.00;99.90;;;;;;6242213;23;20441;-70
2023/05/22 03:32:25;;;;;;;35.10;30.88;;;16.90;99.90;;;;;;6241756;23;20000;-70
2023/05/22 03:34:50;;;;;;;41.13;33.10;;;17.00;99.90;;;;;;6242295;23;20574;-70
2023/05/22 03:37:16;;;;;;;35.70;31.83;;;16.90;99.90;;;;;;6242013;23;20001;-70
2023/05/22 03:39:41;;;;;;;37.22;31.92;;;16.80;99.90;;;;;;6241923;23;20008;-70
2023/05/22 03:42:07;;;;;;;41.38;32.55;;;16.90;99.90;;;;;;6241627;23;20075;-70
2023/05/22 03:44:32;;;;;;;39.25;32.05;;;16.80;99.90;;;;;;6241933;23;20079;-70
2023/05/22 03:46:58;;;;;;;42.85;34.00;;;16.80;99.90;;;;;;6242261;23;20008;-71
2023/05/22 03:49:24;;;;;;;37.13;32.75;;;16.80;99.90;;;;;;6241955;23;20004;-70
2023/05/22 03:51:49;;;;;;;42.78;33.00;;;16.80;99.90;;;;;;6242321;23;20125;-71
2023/05/22 03:54:15;;;;;;;40.38;34.95;;;16.80;99.90;;;;;;6241818;23;20063;-70
2023/05/22 03:56:41;;;;;;;40.78;34.53;;;16.70;99.90;;;;;;6241524;23;20326;-71
2023/05/22 03:59:06;;;;;;;38.80;32.55;;;16.70;99.90;;;;;;6242167;23;20016;-71
2023/05/22 04:01:32;;;;;;;39.80;35.53;;;16.70;99.90;;;;;;6241726;23;20439;-70
2023/05/22 04:03:57;;;;;;;45.15;36.08;;;16.70;99.90;;;;;;6242404;23;20030;-70
2023/05/22 04:06:24;;;;;;;47.15;38.13;;;16.70;99.90;;;;;;6214689;23;20018;-71
2023/05/22 04:08:50;;;;;;;39.17;34.95;;;16.70;99.90;;;;;;6242047;23;20028;-71
2023/05/22 04:11:15;;;;;;;40.22;34.55;;;16.70;99.90;;;;;;6240991;23;20280;-70
2023/05/22 04:13:41;;;;;;;38.88;34.65;;;16.70;99.90;;;;;;6241864;23;20007;-70
2023/05/22 04:16:07;;;;;;;39.72;34.65;;;16.60;99.90;;;;;;6214352;23;20004;-70
2023/05/22 04:18:33;;;;;;;38.53;33.60;;;16.70;99.90;;;;;;6241552;23;19996;-70
2023/05/22 04:20:58;;;;;;;38.67;34.28;;;16.70;99.90;;;;;;6241507;23;20079;-71
2023/05/22 04:23:24;;;;;;;42.83;33.60;;;16.70;99.90;;;;;;6240917;23;20008;-70
2023/05/22 04:25:50;;;;;;;41.22;36.05;;;16.70;99.90;;;;;;6239781;23;20012;-71
2023/05/22 04:28:21;;;;;;;41.83;37.42;;;16.70;99.90;;;;;;6241502;23;20019;-71
2023/05/22 04:30:49;;;;;;;40.58;35.20;;;16.70;99.90;;;;;;6241717;23;20024;-70
2023/05/22 04:33:15;;;;;;;38.40;34.35;;;16.70;99.90;;;;;;6242084;23;20024;-71
2023/05/22 04:35:41;;;;;;;43.72;37.42;;;16.70;99.90;;;;;;6241693;23;20004;-70
2023/05/22 04:38:06;;;;;;;39.97;35.75;;;16.70;99.90;;;;;;6241955;23;20080;-70
2023/05/22 04:40:33;;;;;;;49.88;38.40;;;16.70;99.90;;;;;;6240812;23;20008;-71
2023/05/22 04:42:59;;;;;;;42.30;37.75;;;16.70;99.90;;;;;;6241919;23;20000;-71
2023/05/22 04:45:27;;;;;;;44.70;37.70;;;16.70;99.90;;;;;;6241202;23;20080;-70
2023/05/22 04:47:55;;;;;;;45.35;38.38;;;16.70;99.90;;;;;;6241696;23;20387;-71
2023/05/22 04:50:22;;;;;;;43.45;38.75;;;16.70;99.90;;;;;;6241214;23;20460;-71
2023/05/22 04:52:50;;;;;;;44.65;39.15;;;16.70;99.90;;;;;;6241827;23;19996;-70
2023/05/22 04:55:16;;;;;;;43.80;38.83;;;16.70;99.90;;;;;;6213478;23;20011;-70
2023/05/22 04:57:44;;;;;;;43.70;35.40;;;16.80;99.90;;;;;;6214850;23;20004;-70
2023/05/22 05:00:11;;;;;;;45.83;39.33;;;16.80;99.90;;;;;;6241789;23;20334;-70
2023/05/22 05:02:37;;;;;;;44.40;39.78;;;16.80;99.90;;;;;;6241932;23;20022;-70
2023/05/22 05:05:03;;;;;;;42.63;36.40;;;16.90;99.90;;;;;;6241635;23;20005;-71
2023/05/22 05:07:28;;;;;;;45.40;39.50;;;16.90;99.90;;;;;;6241376;23;20003;-71
2023/05/22 05:09:54;;;;;;;40.97;36.55;;;16.90;99.90;;;;;;6240960;23;20448;-70
2023/05/22 05:12:19;;;;;;;43.97;39.22;;;17.00;99.90;;;;;;6241416;23;20449;-71
2023/05/22 05:14:45;;;;;;;40.72;35.88;;;17.00;99.90;;;;;;6214691;23;20011;-70
2023/05/22 05:17:10;;;;;;;50.35;38.42;;;17.00;99.90;;;;;;6241534;23;20046;-71
2023/05/22 05:19:36;;;;;;;44.25;39.08;;;17.00;99.90;;;;;;6241864;23;20000;-71
2023/05/22 05:22:02;;;;;;;46.67;41.50;;;17.00;99.90;;;;;;6242278;23;20016;-71
2023/05/22 05:24:27;;;;;;;39.97;35.97;;;17.00;99.90;;;;;;6240654;23;20321;-71
2023/05/22 05:26:53;;;;;;;40.47;36.17;;;17.00;99.90;;;;;;6241560;23;20012;-71
2023/05/22 05:29:18;;;;;;;41.90;37.67;;;17.00;99.90;;;;;;6241570;23;20012;-71
2023/05/22 05:31:44;;;;;;;38.50;34.28;;;17.00;99.90;;;;;;6241593;23;20004;-70
2023/05/22 05:34:09;;;;;;;36.67;33.33;;;17.10;99.90;;;;;;6241577;23;20040;-71
2023/05/22 05:36:35;;;;;;;35.50;31.83;;;17.10;99.90;;;;;;6240739;23;20002;-72
2023/05/22 05:39:01;;;;;;;35.67;32.10;;;17.10;99.90;;;;;;6241599;23;20008;-71
2023/05/22 05:41:26;;;;;;;37.33;33.33;;;17.20;99.90;;;;;;6241257;23;19996;-70
2023/05/22 05:43:52;;;;;;;36.75;32.88;;;17.20;99.90;;;;;;6241389;23;20479;-71
2023/05/22 05:46:18;;;;;;;34.17;30.55;;;17.20;99.90;;;;;;6242104;23;20075;-71
2023/05/22 05:48:44;;;;;;;30.33;26.85;;;17.20;99.90;;;;;;6243303;23;20049;-70
2023/05/22 05:51:09;;;;;;;37.40;33.53;;;17.10;99.90;;;;;;6242581;23;20004;-71
2023/05/22 05:53:39;;;;;;;38.08;34.38;;;17.10;99.90;;;;;;6243096;23;20016;-71
2023/05/22 05:56:06;;;;;;;37.00;33.30;;;17.10;99.90;;;;;;6243295;23;20007;-70
2023/05/22 05:58:32;;;;;;;37.63;33.78;;;17.20;99.90;;;;;;6242690;23;19996;-71
2023/05/22 06:00:57;;;;;;;35.63;32.05;;;17.20;99.90;;;;;;6242526;23;20054;-71
2023/05/22 06:03:24;;;;;;;33.22;30.02;;;17.20;99.90;;;;;;6243225;23;20000;-72
2023/05/22 06:05:50;;;;;;;36.00;32.15;;;17.20;99.90;;;;;;6242840;23;20167;-71
2023/05/22 06:08:15;;;;;;;30.95;27.95;;;17.30;99.90;;;;;;6242858;23;20146;-72
2023/05/22 06:10:41;;;;;;;34.60;31.13;;;17.30;99.90;;;;;;6243091;23;20004;-71
2023/05/22 06:13:06;;;;;;;34.90;31.55;;;17.40;99.90;;;;;;6216091;23;20011;-74
2023/05/22 06:15:32;;;;;;;30.70;28.00;;;17.40;99.90;;;;;;6242027;23;19996;-75
2023/05/22 06:17:58;;;;;;;32.60;29.42;;;17.50;99.90;;;;;;6242006;23;20004;-73
2023/05/22 06:20:24;;;;;;;32.47;29.55;;;17.60;99.90;;;;;;6241302;23;20095;-74
2023/05/22 06:22:50;;;;;;;36.47;33.08;;;17.60;99.90;;;;;;6242362;23;20438;-74
2023/05/22 06:25:16;;;;;;;34.58;31.10;;;17.70;99.90;;;;;;6243875;23;20011;-74
2023/05/22 06:27:42;;;;;;;32.30;29.10;;;17.90;99.90;;;;;;6218023;23;20044;-74
2023/05/22 06:30:08;;;;;;;35.28;31.95;;;18.10;99.90;;;;;;6243785;23;20007;-74
2023/05/22 06:32:34;;;;;;;34.63;31.33;;;18.10;99.90;;;;;;6242903;23;20007;-74
2023/05/22 06:34:59;;;;;;;34.25;31.05;;;18.20;99.90;;;;;;6242705;23;20008;-74
2023/05/22 06:37:25;;;;;;;34.15;30.98;;;18.30;99.90;;;;;;6215579;23;20075;-74
2023/05/22 06:39:50;;;;;;;32.45;29.65;;;18.40;99.90;;;;;;6242748;23;20113;-74
2023/05/22 06:42:16;;;;;;;32.53;29.65;;;18.40;99.90;;;;;;6243420;23;20005;-75
2023/05/22 06:44:42;;;;;;;31.48;28.67;;;18.40;99.90;;;;;;6243536;23;20397;-74
2023/05/22 06:47:07;;;;;;;31.38;28.58;;;18.50;99.90;;;;;;6243962;23;20027;-74
2023/05/22 06:49:33;;;;;;;33.30;30.20;;;18.50;99.90;;;;;;6215379;23;20333;-74
2023/05/22 06:51:58;;;;;;;33.55;30.58;;;18.60;99.90;;;;;;6215743;23;20084;-74
2023/05/22 06:54:27;;;;;;;33.42;30.20;;;18.60;99.90;;;;;;6242287;23;19996;-74
2023/05/22 06:56:53;;;;;;;31.42;28.58;;;18.60;99.90;;;;;;6239711;23;19996;-73
2023/05/22 06:59:19;;;;;;;31.92;29.05;;;18.70;99.90;;;;;;6240869;23;20081;-74
2023/05/22 07:01:45;;;;;;;32.72;29.70;;;18.70;99.90;;;;;;6239691;23;20087;-74
2023/05/22 07:04:12;;;;;;;33.25;30.17;;;18.80;99.90;;;;;;6239218;23;20495;-74
2023/05/22 07:06:40;;;;;;;30.60;27.80;;;18.90;99.90;;;;;;6240060;23;20618;-74
2023/05/22 07:09:07;;;;;;;33.05;29.92;;;18.90;99.90;;;;;;6240915;23;20433;-74
2023/05/22 07:11:33;;;;;;;31.30;28.48;;;18.90;99.90;;;;;;6214870;23;20043;-73
2023/05/22 07:14:00;;;;;;;32.13;28.92;;;19.00;99.90;;;;;;6213821;23;20000;-74
2023/05/22 07:16:25;;;;;;;29.73;26.98;;;19.00;99.90;;;;;;6242030;23;20046;-74
2023/05/22 07:18:51;;;;;;;30.00;27.20;;;19.00;99.90;;;;;;6241914;23;20071;-75
2023/05/22 07:21:17;;;;;;;31.90;28.83;;;19.10;99.90;;;;;;6242195;23;20004;-74
2023/05/22 07:23:42;;;;;;;28.95;26.38;;;19.20;99.90;;;;;;6214157;23;20530;-74
2023/05/22 07:26:08;;;;;;;30.00;27.20;;;19.30;99.90;;;;;;6241649;23;20313;-74
2023/05/22 07:28:34;;;;;;;32.78;29.65;;;19.40;99.90;;;;;;6242214;23;20670;-74
2023/05/22 07:31:00;;;;;;;29.98;27.15;;;19.40;99.90;;;;;;6241350;23;20006;-74
2023/05/22 07:33:25;;;;;;;31.63;28.77;;;19.50;99.90;;;;;;6213738;23;20382;-74
2023/05/22 07:35:51;;;;;;;30.63;27.85;;;19.60;99.90;;;;;;6240728;23;20123;-74
2023/05/22 07:38:17;;;;;;;31.52;28.63;;;19.70;99.90;;;;;;6214161;23;20500;-74
2023/05/22 07:40:42;;;;;;;28.80;26.20;;;19.80;99.90;;;;;;6215303;23;20097;-74
2023/05/22 07:43:08;;;;;;;28.45;25.95;;;19.90;99.90;;;;;;6241861;23;20079;-74
2023/05/22 07:45:34;;;;;;;28.27;25.77;;;20.00;99.90;;;;;;6240472;23;20004;-74
2023/05/22 07:48:02;;;;;;;27.15;24.63;;;20.10;99.90;;;;;;6241210;23;20004;-74
2023/05/22 07:50:29;;;;;;;27.75;25.23;;;20.20;99.90;;;;;;6241442;23;20016;-74
2023/05/22 07:52:54;;;;;;;26.33;23.92;;;20.30;99.90;;;;;;6241909;23;20004;-74
2023/05/22 07:55:20;;;;;;;26.45;23.67;;;20.40;99.90;;;;;;6213794;23;20668;-74
2023/05/22 07:57:46;;;;;;;27.08;24.20;;;20.50;99.90;;;;;;6240226;23;19997;-74
2023/05/22 08:00:13;;;;;;;22.13;20.08;;;20.60;99.90;;;;;;6241486;23;20008;-74
2023/05/22 08:02:41;;;;;;;23.23;20.92;;;20.60;99.90;;;;;;6241452;23;19996;-74
2023/05/22 08:05:07;;;;;;;24.42;22.23;;;20.70;99.90;;;;;;6241949;23;20032;-75
2023/05/22 08:07:33;;;;;;;25.73;23.17;;;20.80;99.90;;;;;;6239850;23;20000;-75
2023/05/22 08:10:02;;;;;;;25.38;23.05;;;20.90;99.90;;;;;;6240429;23;20011;-74
2023/05/22 08:12:28;;;;;;;24.30;22.20;;;21.00;99.90;;;;;;6241120;23;20105;-74
2023/05/22 08:14:53;;;;;;;24.10;21.95;;;21.10;99.90;;;;;;6241758;23;20428;-74
2023/05/22 08:17:19;;;;;;;22.77;20.88;;;21.20;99.90;;;;;;6240852;23;20126;-74
2023/05/22 08:19:45;;;;;;;23.02;20.92;;;21.20;99.90;;;;;;6240659;23;20000;-75
2023/05/22 08:22:10;;;;;;;24.55;22.10;;;21.30;99.90;;;;;;6241180;23;20004;-74
2023/05/22 08:24:36;;;;;;;20.88;18.80;;;21.40;99.90;;;;;;6241560;23;20505;-75
2023/05/22 08:27:01;;;;;;;23.63;21.15;;;21.50;99.90;;;;;;6241283;23;20020;-74
2023/05/22 08:29:27;;;;;;;23.70;21.58;;;21.60;99.90;;;;;;6240010;23;20008;-74
2023/05/22 08:31:55;;;;;;;22.60;20.65;;;21.60;99.90;;;;;;6213422;23;20083;-74
2023/05/22 08:34:21;;;;;;;21.67;19.58;;;21.70;99.90;;;;;;6214728;23;20358;-73
2023/05/22 08:36:47;;;;;;;22.30;20.25;;;21.80;99.90;;;;;;6241413;23;20000;-73
2023/05/22 08:39:13;;;;;;;22.05;20.00;;;22.00;99.90;;;;;;6240835;23;20000;-73
2023/05/22 08:41:39;;;;;;;21.98;19.90;;;22.00;99.90;;;;;;6239633;23;20000;-74
2023/05/22 08:44:04;;;;;;;21.13;19.27;;;22.10;99.90;;;;;;6241460;23;20058;-73
2023/05/22 08:46:36;;;;;;;21.85;19.85;;;22.10;99.90;;;;;;6240545;23;20015;-73
2023/05/22 08:49:03;;;;;;;20.42;18.52;;;22.20;99.90;;;;;;6214291;23;20005;-73
2023/05/22 08:51:33;;;;;;;21.80;19.80;;;22.20;99.90;;;;;;6240215;23;20087;-74
2023/05/22 08:54:00;;;;;;;21.63;19.67;;;22.30;99.90;;;;;;6241059;23;20007;-73
2023/05/22 08:56:26;;;;;;;22.90;20.65;;;22.40;99.90;;;;;;6240811;23;19996;-74
2023/05/22 08:58:53;;;;;;;22.13;20.15;;;22.50;99.90;;;;;;6241254;23;20382;-73
2023/05/22 09:01:19;;;;;;;21.88;19.80;;;22.60;99.90;;;;;;6239988;23;20022;-74
2023/05/22 09:03:48;;;;;;;21.40;19.48;;;22.70;99.90;;;;;;6239771;23;19997;-74
2023/05/22 09:06:13;;;;;;;20.48;18.67;;;22.80;99.90;;;;;;6240907;23;19997;-74
2023/05/22 09:08:41;;;;;;;22.58;20.48;;;22.90;99.90;;;;;;6214160;23;20008;-74
2023/05/22 09:11:07;;;;;;;19.92;18.23;;;22.90;99.90;;;;;;6240152;23;20054;-73
2023/05/22 09:13:32;;;;;;;20.85;18.95;;;22.90;99.90;;;;;;6239983;23;19992;-74
2023/05/22 09:15:59;;;;;;;19.17;17.52;;;23.10;99.90;;;;;;6239549;23;20000;-73
2023/05/22 09:18:28;;;;;;;19.50;17.45;;;23.20;99.90;;;;;;6213700;23;20440;-73
2023/05/22 09:20:56;;;;;;;20.52;18.55;;;23.30;99.90;;;;;;6242258;23;20341;-74
2023/05/22 09:23:24;;;;;;;21.63;19.52;;;23.40;99.90;;;;;;6242238;23;20290;-74
2023/05/22 09:25:56;;;;;;;20.35;18.52;;;23.50;99.90;;;;;;6240857;23;20012;-73
2023/05/22 09:28:23;;;;;;;21.63;19.40;;;23.70;99.90;;;;;;6243105;23;20014;-74
2023/05/22 09:30:50;;;;;;;20.50;18.40;;;23.80;99.90;;;;;;6242332;23;20008;-73
2023/05/22 09:33:16;;;;;;;19.02;17.40;;;24.00;99.90;;;;;;6243049;23;19997;-73
2023/05/22 09:35:42;;;;;;;19.08;17.27;;;24.10;99.90;;;;;;6242017;23;20416;-74
2023/05/22 09:38:09;;;;;;;18.55;16.77;;;24.20;99.90;;;;;;6243254;23;20122;-74
2023/05/22 09:40:37;;;;;;;18.67;16.83;;;24.30;99.90;;;;;;6216229;23;20101;-74
2023/05/22 09:43:09;;;;;;;17.13;15.63;;;24.40;99.90;;;;;;6243245;23;20000;-74
2023/05/22 09:45:35;;;;;;;16.92;15.43;;;24.50;99.80;;;;;;6242210;23;20008;-74
2023/05/22 09:48:05;;;;;;;14.82;13.50;;;24.70;99.10;;;;;;6241324;23;20000;-72
2023/05/22 09:50:31;;;;;;;16.17;14.85;;;24.90;98.40;;;;;;6217340;23;20450;-74
2023/05/22 09:53:02;;;;;;;19.15;17.55;;;25.00;97.80;;;;;;6245058;23;20000;-74
2023/05/22 09:55:28;;;;;;;23.35;21.27;;;25.10;97.90;;;;;;6217986;23;19996;-74
2023/05/22 09:57:54;;;;;;;22.00;19.77;;;25.20;98.10;;;;;;6241658;23;20003;-73
2023/05/22 10:00:22;;;;;;;18.35;16.67;;;25.40;98.30;;;;;;6243101;23;20079;-73
2023/05/22 10:02:57;;;;;;;17.40;15.90;;;25.60;97.60;;;;;;6243046;23;20334;-73
2023/05/22 10:05:28;;;;;;;20.77;18.98;;;25.70;96.60;;;;;;6243274;23;20081;-73
2023/05/22 10:08:03;;;;;;;22.40;20.30;;;25.60;96.30;;;;;;6244473;23;20011;-74
2023/05/22 10:10:29;;;;;;;20.88;19.02;;;25.60;96.50;;;;;;6243335;23;20008;-73
2023/05/22 10:13:04;;;;;;;24.80;22.17;;;25.40;96.60;;;;;;6242639;23;20456;-73
2023/05/22 10:15:33;;;;;;;19.98;18.27;;;25.20;96.50;;;;;;6242591;23;20075;-74
2023/05/22 10:18:00;;;;;;;21.80;19.50;;;25.10;96.60;;;;;;6243170;23;20000;-74
2023/05/22 10:20:27;;;;;;;22.27;20.38;;;25.20;97.00;;;;;;6241056;23;20008;-74
2023/05/22 10:22:54;;;;;;;25.42;20.67;;;25.20;97.00;;;;;;6243221;23;20000;-73
2023/05/22 10:25:20;;;;;;;23.27;21.13;;;25.40;97.10;;;;;;6241869;23;20039;-73
2023/05/22 10:27:47;;;;;;;20.02;18.23;;;25.60;96.90;;;;;;6241840;23;19996;-74
2023/05/22 10:30:19;;;;;;;21.73;19.75;;;25.70;96.80;;;;;;6241342;23;20318;-74
2023/05/22 10:33:06;;;;;;;24.13;21.88;;;26.00;96.80;;;;;;6241653;23;20485;-73
2023/05/22 10:35:51;;;;;;;22.98;20.95;;;26.20;96.40;;;;;;6241381;23;20011;-74
2023/05/22 10:38:45;;;;;;;24.65;22.45;;;26.50;95.90;;;;;;6240600;23;20054;-74
2023/05/22 10:41:11;;;;;;;21.92;19.83;;;26.60;94.80;;;;;;6239886;23;20075;-74
2023/05/22 10:43:40;;;;;;;20.10;18.30;;;26.70;94.90;;;;;;6241889;23;20035;-74
2023/05/22 10:46:07;;;;;;;19.15;17.42;;;26.70;94.90;;;;;;6242468;22;20007;-73
2023/05/22 10:48:37;;;;;;;33.72;20.20;;;26.70;94.50;;;;;;6242302;23;20020;-74
2023/05/22 10:51:03;;;;;;;20.40;18.63;;;26.70;93.40;;;;;;6242504;23;20035;-74
2023/05/22 10:53:31;;;;;;;21.15;19.25;;;26.50;93.30;;;;;;6241305;23;19999;-74
2023/05/22 10:56:01;;;;;;;21.40;19.40;;;26.30;93.20;;;;;;6242407;23;20000;-73
2023/05/22 10:58:37;;;;;;;24.00;22.02;;;26.10;93.40;;;;;;6242521;23;20085;-74
2023/05/22 11:01:17;;;;;;;28.65;26.00;;;26.00;93.70;;;;;;6242316;23;20008;-73
2023/05/22 11:03:58;;;;;;;30.30;27.58;;;25.90;94.30;;;;;;6240634;23;20008;-73
2023/05/22 11:06:47;;;;;;;29.83;27.05;;;26.00;94.50;;;;;;6242117;23;20000;-73
2023/05/22 11:09:20;;;;;;;29.02;26.23;;;26.10;94.80;;;;;;6215386;23;20433;-73
2023/05/22 11:11:47;;;;;;;22.92;20.90;;;26.10;95.10;;;;;;6215030;23;20000;-74
2023/05/22 11:14:16;;;;;;;23.50;21.40;;;26.00;94.90;;;;;;6213196;23;20036;-74
2023/05/22 11:16:42;;;;;;;26.20;23.60;;;26.00;94.30;;;;;;6241650;23;20144;-73
2023/05/22 11:19:09;;;;;;;25.02;22.75;;;26.10;94.40;;;;;;6242068;23;20346;-73
2023/05/22 11:21:45;;;;;;;22.73;20.70;;;26.10;94.10;;;;;;6240988;23;20410;-74
2023/05/22 11:24:16;;;;;;;20.88;18.98;;;26.00;93.90;;;;;;6214645;23;20390;-74
2023/05/22 11:26:42;;;;;;;21.90;19.95;;;26.00;93.90;;;;;;6239369;23;20012;-71
2023/05/22 11:29:08;;;;;;;23.42;21.20;;;26.10;93.80;;;;;;6241710;23;20477;-74
2023/05/22 11:31:37;;;;;;;23.42;21.17;;;26.20;93.70;;;;;;6241244;23;20041;-73
2023/05/22 11:34:03;;;;;;;23.63;21.52;;;26.30;93.80;;;;;;6241874;23;19996;-73
2023/05/22 11:36:28;;;;;;;22.58;20.55;;;26.50;93.40;;;;;;6240508;23;20282;-73
2023/05/22 11:38:58;;;;;;;24.85;22.55;;;26.70;93.10;;;;;;6241540;23;19996;-74
2023/05/22 11:41:28;;;;;;;26.25;23.67;;;26.90;92.90;;;;;;6240822;23;19996;-73
2023/05/22 11:43:53;;;;;;;24.58;22.38;;;27.00;92.60;;;;;;6214221;23;20002;-73
2023/05/22 11:46:19;;;;;;;27.23;24.40;;;27.10;92.20;;;;;;6241605;23;20000;-73
2023/05/22 11:48:47;;;;;;;26.25;23.80;;;27.00;92.20;;;;;;6240479;23;20019;-73
2023/05/22 11:51:12;;;;;;;21.88;19.92;;;27.00;92.40;;;;;;6241645;23;20532;-74
2023/05/22 11:53:40;;;;;;;25.27;23.02;;;27.10;92.40;;;;;;6214875;23;20000;-73
2023/05/22 11:56:06;;;;;;;23.67;21.35;;;27.00;91.80;;;;;;6214933;23;20357;-73
2023/05/22 11:58:32;;;;;;;24.35;22.08;;;27.00;91.70;;;;;;6240188;23;20066;-73
2023/05/22 12:00:59;;;;;;;22.83;20.73;;;26.90;91.80;;;;;;6242020;23;20322;-73
2023/05/22 12:03:25;;;;;;;22.60;20.70;;;26.90;91.90;;;;;;6241658;23;20079;-73
2023/05/22 12:05:51;;;;;;;17.35;15.77;;;26.90;92.00;;;;;;6241995;23;20027;-73
2023/05/22 12:08:17;;;;;;;26.52;21.52;;;27.00;92.20;;;;;;6241154;23;20411;-73
2023/05/22 12:10:47;;;;;;;21.45;19.60;;;27.10;92.10;;;;;;6240101;23;20008;-73
2023/05/22 12:13:12;;;;;;;23.05;20.90;;;27.10;91.50;;;;;;6241569;23;20491;-73
2023/05/22 12:15:38;;;;;;;24.35;22.20;;;27.10;91.60;;;;;;6214817;23;20004;-73
2023/05/22 12:18:08;;;;;;;24.05;21.92;;;27.00;91.80;;;;;;6241734;23;20325;-73
2023/05/22 12:20:33;;;;;;;21.20;19.33;;;27.10;91.60;;;;;;6240372;23;20007;-73
2023/05/22 12:22:59;;;;;;;18.67;17.02;;;27.10;91.40;;;;;;6241085;23;20058;-72
2023/05/22 12:25:34;;;;;;;19.45;17.67;;;27.20;90.90;;;;;;6241395;23;20015;-73
2023/05/22 12:27:59;;;;;;;18.00;16.60;;;27.10;90.50;;;;;;6241796;23;19996;-74
2023/05/22 12:30:25;;;;;;;16.73;15.32;;;27.00;90.40;;;;;;6241258;23;20018;-73